createdAt,value
2022-11-19T00:00:35.465Z,74.70
2022-11-19T00:03:23.356Z,74.84
2022-11-19T00:05:51.523Z,74.93
2022-11-19T00:08:39.097Z,75.12
2022-11-19T00:11:11.107Z,75.18
2022-11-19T00:13:58.055Z,75.35
2022-11-19T00:16:25.995Z,75.45
2022-11-19T00:19:00.105Z,75.41
2022-11-19T00:21:29.833Z,75.43
2022-11-19T00:23:57.924Z,75.25
2022-11-19T00:26:26.058Z,75.21
2022-11-19T00:28:54.981Z,75.25
2022-11-19T00:31:23.186Z,75.27
2022-11-19T00:33:51.251Z,75.26
2022-11-19T00:36:19.436Z,75.13
2022-11-19T00:38:47.466Z,75.14
2022-11-19T00:41:15.761Z,75.18
2022-11-19T00:43:50.305Z,75.10
2022-11-19T00:46:21.398Z,75.15
2022-11-19T00:48:51.859Z,74.49
2022-11-19T00:51:22.220Z,74.36
2022-11-19T00:53:51.023Z,74.41
2022-11-19T00:56:22.106Z,74.49
2022-11-19T00:58:51.095Z,74.46
2022-11-19T01:01:22.611Z,74.45
2022-11-19T01:03:51.316Z,74.46
2022-11-19T01:06:22.079Z,74.47
2022-11-19T01:08:51.956Z,74.53
2022-11-19T01:11:23.917Z,74.62
2022-11-19T01:13:52.182Z,74.64
2022-11-19T01:16:23.838Z,74.66
2022-11-19T01:18:52.910Z,74.56
2022-11-19T01:21:23.652Z,74.66
2022-11-19T01:23:51.700Z,74.83
2022-11-19T01:26:20.639Z,74.86
2022-11-19T01:28:49.316Z,74.90
2022-11-19T01:31:27.157Z,74.93
2022-11-19T01:33:55.766Z,75.04
2022-11-19T01:36:29.339Z,75.21
2022-11-19T01:38:57.776Z,75.27
2022-11-19T01:41:32.193Z,75.40
2022-11-19T01:44:06.187Z,75.52
2022-11-19T01:46:37.757Z,75.77
2022-11-19T01:49:17.389Z,75.98
2022-11-19T01:52:01.081Z,76.07
2022-11-19T01:54:55.555Z,76.07
2022-11-19T01:57:23.797Z,76.00
2022-11-19T01:59:52.906Z,76.05
2022-11-19T02:02:23.932Z,76.08
2022-11-19T02:04:57.977Z,76.06
2022-11-19T02:07:29.667Z,75.91
2022-11-19T02:10:12.437Z,75.88
2022-11-19T02:13:05.922Z,75.95
2022-11-19T02:15:57.307Z,76.07
2022-11-19T02:18:44.054Z,76.26
2022-11-19T02:21:30.252Z,76.37
2022-11-19T02:24:15.337Z,76.45
2022-11-19T02:27:05.156Z,76.54
2022-11-19T02:30:13.569Z,76.64
2022-11-19T02:32:50.688Z,76.61
2022-11-19T02:35:40.441Z,76.60
2022-11-19T02:38:33.337Z,76.60
2022-11-19T02:41:39.006Z,76.27
2022-11-19T02:44:30.869Z,76.15
2022-11-19T02:47:03.696Z,76.09
2022-11-19T02:49:37.286Z,75.85
2022-11-19T02:52:05.862Z,75.79
2022-11-19T02:54:33.840Z,75.88
2022-11-19T02:57:03.035Z,75.80
2022-11-19T03:00:16.764Z,75.86
2022-11-19T03:03:27.718Z,75.85
2022-11-19T03:06:18.861Z,75.85
2022-11-19T03:08:47.940Z,75.90
2022-11-19T03:11:26.787Z,75.96
2022-11-19T03:14:22.524Z,76.03
2022-11-19T03:16:59.255Z,76.21
2022-11-19T03:19:33.167Z,76.31
2022-11-19T03:22:30.947Z,76.34
2022-11-19T03:25:09.251Z,76.46
2022-11-19T03:27:54.376Z,76.41
2022-11-19T03:30:22.831Z,76.61
2022-11-19T03:32:57.371Z,76.70
2022-11-19T03:35:55.271Z,76.67
2022-11-19T03:38:36.509Z,76.74
2022-11-19T03:41:06.827Z,76.71
2022-11-19T03:43:39.539Z,76.75
2022-11-19T03:46:14.522Z,76.81
2022-11-19T03:48:48.036Z,76.91
2022-11-19T03:51:24.797Z,77.04
2022-11-19T03:53:53.559Z,77.17
2022-11-19T03:56:30.746Z,77.19
2022-11-19T03:58:59.391Z,77.30
2022-11-19T04:01:27.483Z,77.37
2022-11-19T04:04:14.373Z,77.39
2022-11-19T04:06:42.286Z,77.49
2022-11-19T04:09:10.438Z,77.57
2022-11-19T04:11:38.542Z,77.60
2022-11-19T04:14:06.818Z,77.64
2022-11-19T04:16:35.178Z,77.74
2022-11-19T04:19:03.303Z,77.92
2022-11-19T04:21:31.325Z,77.96
2022-11-19T04:23:59.602Z,77.92
2022-11-19T04:26:27.617Z,77.99
2022-11-19T04:28:55.742Z,78.13
2022-11-19T04:31:23.883Z,78.18
2022-11-19T04:33:52.217Z,78.33
2022-11-19T04:36:20.678Z,78.28
2022-11-19T04:38:48.940Z,78.22
2022-11-19T04:41:17.055Z,78.25
2022-11-19T04:43:45.096Z,78.38
2022-11-19T04:46:13.139Z,78.37
2022-11-19T04:48:41.326Z,78.46
2022-11-19T04:51:09.408Z,78.65
2022-11-19T04:53:38.859Z,78.63
2022-11-19T04:56:07.956Z,78.66
2022-11-19T04:58:39.196Z,78.74
2022-11-19T05:01:08.159Z,78.88
2022-11-19T05:03:36.452Z,78.96
2022-11-19T05:06:04.891Z,79.02
2022-11-19T05:08:32.924Z,79.09
2022-11-19T05:11:01.066Z,79.28
2022-11-19T05:13:29.531Z,79.31
2022-11-19T05:15:57.692Z,79.40
2022-11-19T05:18:25.785Z,79.51
2022-11-19T05:20:53.980Z,79.64
2022-11-19T05:23:22.053Z,79.85
2022-11-19T05:25:50.123Z,80.04
2022-11-19T05:28:18.544Z,80.12
2022-11-19T05:30:46.742Z,80.06
2022-11-19T05:33:14.810Z,80.07
2022-11-19T05:35:42.899Z,80.00
2022-11-19T05:38:11.043Z,79.94
2022-11-19T05:40:39.252Z,79.91
2022-11-19T05:43:07.807Z,79.93
2022-11-19T05:45:36.297Z,79.90
2022-11-19T05:48:04.896Z,79.86
2022-11-19T05:50:33.035Z,79.87
2022-11-19T05:53:01.221Z,80.02
2022-11-19T05:55:29.349Z,80.23
2022-11-19T05:57:57.475Z,80.31
2022-11-19T06:00:25.829Z,80.46
2022-11-19T06:02:53.820Z,80.64
2022-11-19T06:05:21.948Z,80.71
2022-11-19T06:07:50.075Z,80.90
2022-11-19T06:10:18.058Z,81.05
2022-11-19T06:12:47.058Z,81.10
2022-11-19T06:15:15.378Z,81.10
2022-11-19T06:17:43.336Z,81.18
2022-11-19T06:20:11.555Z,81.19
2022-11-19T06:22:40.213Z,81.22
2022-11-19T06:25:08.897Z,81.24
2022-11-19T06:27:36.986Z,81.31
2022-11-19T06:30:07.868Z,81.44
2022-11-19T06:32:36.079Z,81.52
2022-11-19T06:35:04.854Z,81.53
2022-11-19T06:37:33.017Z,81.56
2022-11-19T06:40:01.055Z,81.49
2022-11-19T06:42:38.486Z,81.31
2022-11-19T06:45:10.606Z,81.22
2022-11-19T06:47:41.229Z,81.20
2022-11-19T06:50:11.051Z,81.26
2022-11-19T06:52:39.205Z,81.27
2022-11-19T06:55:07.539Z,81.27
2022-11-19T06:57:36.186Z,81.22
2022-11-19T07:00:05.230Z,81.14
2022-11-19T07:02:36.650Z,81.04
2022-11-19T07:05:06.236Z,80.73
2022-11-19T07:07:35.277Z,80.67
2022-11-19T07:10:03.780Z,80.78
2022-11-19T07:12:32.058Z,80.90
2022-11-19T07:15:04.241Z,80.83
2022-11-19T07:17:33.321Z,80.78
2022-11-19T07:20:02.231Z,80.84
2022-11-19T07:22:30.286Z,80.73
2022-11-19T07:24:58.388Z,80.70
2022-11-19T07:27:26.427Z,80.56
2022-11-19T07:29:54.430Z,80.44
2022-11-19T07:32:22.850Z,80.33
2022-11-19T07:34:50.946Z,80.32
2022-11-19T07:37:19.320Z,80.19
2022-11-19T07:39:47.460Z,80.16
2022-11-19T07:42:34.075Z,80.07
2022-11-19T07:45:03.279Z,80.10
2022-11-19T07:47:33.314Z,80.32
2022-11-19T07:50:01.978Z,80.54
2022-11-19T07:52:31.006Z,80.41
2022-11-19T07:54:59.216Z,80.62
2022-11-19T07:57:30.242Z,80.76
2022-11-19T07:59:59.473Z,80.66
2022-11-19T08:02:27.681Z,80.61
2022-11-19T08:04:55.777Z,80.49
2022-11-19T08:07:24.099Z,80.61
2022-11-19T08:09:52.314Z,80.95
2022-11-19T08:12:20.462Z,81.38
2022-11-19T08:14:48.481Z,81.86
2022-11-19T08:17:35.665Z,82.02
2022-11-19T08:20:08.234Z,82.05
2022-11-19T08:22:37.298Z,81.83
2022-11-19T08:25:06.536Z,81.63
2022-11-19T08:27:35.137Z,81.49
2022-11-19T08:30:03.640Z,81.34
2022-11-19T08:32:31.803Z,81.33
2022-11-19T08:35:00.064Z,81.37
2022-11-19T08:37:28.083Z,81.26
2022-11-19T08:39:56.318Z,80.71
2022-11-19T08:42:45.074Z,80.61
2022-11-19T08:45:16.826Z,80.52
2022-11-19T08:47:49.174Z,80.54
2022-11-19T08:50:17.902Z,80.13
2022-11-19T08:52:46.128Z,80.43
2022-11-19T08:55:14.290Z,80.97
2022-11-19T08:57:42.215Z,80.76
2022-11-19T09:00:10.921Z,80.56
2022-11-19T09:02:39.095Z,80.76
2022-11-19T09:05:14.418Z,80.90
2022-11-19T09:07:43.049Z,81.09
2022-11-19T09:10:11.213Z,81.29
2022-11-19T09:12:39.337Z,81.43
2022-11-19T09:15:09.019Z,81.54
2022-11-19T09:17:38.452Z,81.43
2022-11-19T09:20:09.069Z,81.04
2022-11-19T09:22:37.548Z,80.66
2022-11-19T09:25:06.576Z,80.31
2022-11-19T09:27:34.729Z,80.38
2022-11-19T09:30:04.221Z,80.62
2022-11-19T09:32:33.725Z,80.79
2022-11-19T09:35:02.412Z,80.75
2022-11-19T09:37:34.241Z,80.70
2022-11-19T09:40:04.797Z,80.92
2022-11-19T09:43:03.918Z,81.16
2022-11-19T09:46:10.731Z,81.33
2022-11-19T09:48:39.458Z,81.30
2022-11-19T09:51:15.245Z,81.17
2022-11-19T09:54:02.936Z,81.16
2022-11-19T09:56:43.176Z,81.18
2022-11-19T09:59:33.521Z,81.08
2022-11-19T10:02:02.321Z,80.94
2022-11-19T10:04:33.878Z,80.97
2022-11-19T10:07:45.076Z,81.08
2022-11-19T10:10:28.358Z,80.73
2022-11-19T10:13:15.575Z,80.46
2022-11-19T10:16:02.237Z,81.00
2022-11-19T10:18:49.300Z,81.05
2022-11-19T10:21:17.456Z,80.90
2022-11-19T10:24:00.992Z,80.61
2022-11-19T10:26:39.743Z,80.22
2022-11-19T10:29:22.798Z,79.85
2022-11-19T10:31:52.292Z,79.18
2022-11-19T10:34:29.616Z,78.89
2022-11-19T10:37:03.639Z,77.78
2022-11-19T10:39:38.650Z,73.71
2022-11-19T10:42:24.059Z,74.38
2022-11-19T10:44:59.298Z,74.23
2022-11-19T10:47:42.150Z,74.76
2022-11-19T10:50:22.350Z,75.29
2022-11-19T10:52:58.302Z,73.69
2022-11-19T10:55:38.226Z,71.30
2022-11-19T10:58:27.268Z,70.58
2022-11-19T11:00:58.520Z,71.77
2022-11-19T11:03:33.579Z,72.14
2022-11-19T11:06:10.150Z,70.84
2022-11-19T11:09:00.283Z,69.94
2022-11-19T11:11:52.059Z,68.41
2022-11-19T11:14:41.494Z,69.15
2022-11-19T11:17:20.195Z,69.39
2022-11-19T11:20:21.821Z,69.26
2022-11-19T11:23:03.104Z,69.32
2022-11-19T11:25:31.484Z,64.76
2022-11-19T11:28:17.039Z,61.85
2022-11-19T11:30:58.651Z,61.67
2022-11-19T11:33:41.776Z,60.57
2022-11-19T11:36:23.033Z,61.78
2022-11-19T11:38:55.417Z,62.06
2022-11-19T11:44:32.015Z,65.51
2022-11-19T11:47:12.862Z,67.33
2022-11-19T11:49:44.864Z,68.28
2022-11-19T11:52:12.846Z,68.50
2022-11-19T11:55:13.107Z,68.59
2022-11-19T11:57:56.070Z,69.29
2022-11-19T12:00:30.614Z,69.02
2022-11-19T12:03:01.876Z,69.02
2022-11-19T12:05:40.977Z,69.37
2022-11-19T12:08:27.756Z,70.25
2022-11-19T12:11:15.835Z,70.51
2022-11-19T12:13:59.202Z,70.56
2022-11-19T12:16:39.853Z,70.21
2022-11-19T12:19:43.106Z,70.32
2022-11-19T12:22:42.911Z,70.61
2022-11-19T12:25:21.848Z,70.60
2022-11-19T12:28:21.499Z,70.49
2022-11-19T12:30:56.719Z,69.57
2022-11-19T12:34:15.164Z,69.53
2022-11-19T12:36:52.056Z,69.68
2022-11-19T12:39:41.679Z,70.22
2022-11-19T12:42:28.107Z,69.78
2022-11-19T12:45:36.675Z,69.54
2022-11-19T12:48:26.270Z,69.29
2022-11-19T12:51:00.131Z,69.66
2022-11-19T12:54:07.185Z,69.15
2022-11-19T12:56:47.315Z,68.21
2022-11-19T12:59:37.619Z,68.86
2022-11-19T13:02:35.658Z,68.40
2022-11-19T13:05:19.031Z,69.15
2022-11-19T13:07:56.905Z,69.30
2022-11-19T13:10:42.692Z,68.13
2022-11-19T13:13:16.847Z,67.52
2022-11-19T13:16:29.525Z,67.51
2022-11-19T13:19:15.279Z,67.47
2022-11-19T13:21:54.278Z,67.15
2022-11-19T13:24:28.268Z,67.15
2022-11-19T13:27:01.396Z,67.46
2022-11-19T13:30:05.731Z,67.60
2022-11-19T13:33:08.276Z,67.49
2022-11-19T13:35:48.199Z,64.90
2022-11-19T13:38:32.357Z,61.17
2022-11-19T13:41:09.626Z,57.93
2022-11-19T13:43:56.509Z,55.79
2022-11-19T13:46:39.434Z,55.89
2022-11-19T13:49:15.522Z,56.56
2022-11-19T13:51:53.012Z,57.50
2022-11-19T13:54:35.300Z,58.79
2022-11-19T13:57:06.129Z,59.15
2022-11-19T13:59:34.519Z,56.04
2022-11-19T14:02:05.195Z,55.90
2022-11-19T14:05:02.898Z,56.06
2022-11-19T14:07:31.541Z,58.25
2022-11-19T14:10:13.565Z,59.77
2022-11-19T14:12:56.758Z,61.14
2022-11-19T14:16:07.807Z,62.36
2022-11-19T14:19:00.005Z,63.60
2022-11-19T14:21:46.909Z,64.63
2022-11-19T14:25:06.336Z,65.53
2022-11-19T14:27:35.253Z,66.16
2022-11-19T14:30:18.340Z,66.60
2022-11-19T14:32:52.667Z,67.42
2022-11-19T14:35:23.635Z,68.15
2022-11-19T14:37:55.076Z,68.75
2022-11-19T14:40:29.831Z,69.25
2022-11-19T14:43:19.487Z,69.57
2022-11-19T14:46:13.696Z,70.09
2022-11-19T14:48:42.054Z,70.82
2022-11-19T14:51:16.976Z,71.24
2022-11-19T14:54:09.836Z,71.78
2022-11-19T14:56:38.651Z,72.26
2022-11-19T14:59:15.857Z,72.66
2022-11-19T15:01:53.136Z,72.92
2022-11-19T15:04:24.677Z,73.32
2022-11-19T15:06:53.021Z,73.80
2022-11-19T15:09:52.168Z,74.08
2022-11-19T15:12:21.616Z,74.35
2022-11-19T15:15:05.230Z,74.67
2022-11-19T15:17:35.652Z,74.99
2022-11-19T15:20:36.440Z,75.28
2022-11-19T15:23:07.227Z,75.63
2022-11-19T15:26:01.256Z,75.92
2022-11-19T15:28:47.605Z,76.24
2022-11-19T15:31:37.555Z,76.47
2022-11-19T15:34:48.768Z,76.68
2022-11-19T15:37:34.144Z,77.04
2022-11-19T15:40:03.518Z,77.37
2022-11-19T15:42:39.018Z,77.89
2022-11-19T15:45:20.727Z,78.33
2022-11-19T15:48:14.808Z,78.63
2022-11-19T15:50:44.297Z,78.49
2022-11-19T15:53:15.074Z,78.54
2022-11-19T15:56:08.372Z,78.63
2022-11-19T15:58:45.323Z,78.77
2022-11-19T16:01:20.690Z,78.86
2022-11-19T16:03:52.215Z,78.96
2022-11-19T16:06:24.460Z,79.26
2022-11-19T16:08:56.063Z,79.32
2022-11-19T16:11:47.817Z,79.56
2022-11-19T16:14:42.404Z,79.59
2022-11-19T16:17:30.445Z,79.57
2022-11-19T16:20:10.896Z,79.55
2022-11-19T16:22:50.986Z,79.71
2022-11-19T16:25:35.787Z,79.89
2022-11-19T16:28:13.839Z,79.92
2022-11-19T16:30:46.697Z,79.78
2022-11-19T16:33:21.754Z,79.48
2022-11-19T16:35:53.561Z,79.30
2022-11-19T16:38:31.319Z,79.34
2022-11-19T16:41:34.876Z,79.36
2022-11-19T16:44:12.835Z,79.37
2022-11-19T16:46:41.386Z,79.26
2022-11-19T16:49:31.214Z,79.25
2022-11-19T16:51:59.924Z,79.13
2022-11-19T16:54:49.556Z,78.82
2022-11-19T16:57:21.089Z,78.69
2022-11-19T17:00:20.010Z,78.66
2022-11-19T17:02:49.001Z,78.56
2022-11-19T17:05:23.433Z,78.53
2022-11-19T17:08:05.216Z,78.57
2022-11-19T17:10:34.822Z,78.70
2022-11-19T17:13:29.079Z,78.65
2022-11-19T17:16:18.550Z,78.58
2022-11-19T17:18:46.740Z,78.60
2022-11-19T17:21:28.981Z,78.31
2022-11-19T17:23:57.400Z,78.23
2022-11-19T17:26:27.766Z,78.19
2022-11-19T17:29:11.520Z,78.47
2022-11-19T17:31:48.603Z,78.56
2022-11-19T17:34:46.384Z,78.60
2022-11-19T17:37:15.219Z,78.92
2022-11-19T17:39:43.365Z,79.01
2022-11-19T17:42:30.086Z,79.14
2022-11-19T17:44:59.846Z,79.08
2022-11-19T17:47:28.152Z,78.91
2022-11-19T17:49:56.544Z,78.76
2022-11-19T17:52:27.876Z,78.74
2022-11-19T17:54:59.013Z,78.63
2022-11-19T17:57:27.122Z,78.66
2022-11-19T17:59:55.159Z,78.67
2022-11-19T18:02:23.492Z,78.60
2022-11-19T18:04:52.373Z,78.76
2022-11-19T18:07:20.467Z,78.92
2022-11-19T18:09:48.726Z,79.01
2022-11-19T18:12:18.980Z,79.06
2022-11-19T18:14:47.678Z,79.18
2022-11-19T18:17:16.039Z,79.31
2022-11-19T18:19:44.333Z,79.26
2022-11-19T18:22:18.946Z,79.18
2022-11-19T18:24:52.105Z,79.13
2022-11-19T18:27:20.329Z,79.10
2022-11-19T18:29:48.470Z,79.16
2022-11-19T18:32:17.249Z,79.19
2022-11-19T18:34:46.309Z,79.29
2022-11-19T18:37:14.556Z,79.34
2022-11-19T18:39:42.691Z,79.28
2022-11-19T18:42:12.901Z,79.27
2022-11-19T18:44:43.781Z,79.21
2022-11-19T18:47:15.556Z,79.29
2022-11-19T18:49:43.841Z,79.32
2022-11-19T18:52:16.200Z,79.33
2022-11-19T18:54:44.892Z,79.40
2022-11-19T18:57:14.001Z,79.46
2022-11-19T18:59:41.997Z,79.50
2022-11-19T19:02:11.169Z,79.35
2022-11-19T19:04:39.490Z,79.45
2022-11-19T19:07:07.786Z,79.48
2022-11-19T19:09:37.652Z,79.39
2022-11-19T19:12:18.630Z,79.38
2022-11-19T19:14:49.331Z,79.47
2022-11-19T19:17:17.806Z,79.49
2022-11-19T19:19:47.751Z,79.40
2022-11-19T19:22:15.996Z,79.26
2022-11-19T19:24:44.577Z,79.22
2022-11-19T19:27:12.711Z,79.25
2022-11-19T19:29:41.619Z,79.29
2022-11-19T19:32:10.072Z,79.40
2022-11-19T19:34:38.301Z,79.41
2022-11-19T19:37:06.701Z,79.47
2022-11-19T19:39:34.859Z,79.50
2022-11-19T19:42:03.082Z,79.34
2022-11-19T19:44:31.252Z,79.28
2022-11-19T19:46:59.736Z,79.23
2022-11-19T19:49:28.046Z,79.39
2022-11-19T19:51:56.321Z,79.44
2022-11-19T19:54:24.602Z,79.59
2022-11-19T19:56:53.476Z,79.63
2022-11-19T19:59:21.749Z,79.68
2022-11-19T20:01:51.854Z,79.73
2022-11-19T20:04:20.201Z,79.82
2022-11-19T20:06:48.641Z,79.88
2022-11-19T20:09:17.183Z,79.88
2022-11-19T20:11:45.576Z,79.93
2022-11-19T20:14:13.783Z,79.75
2022-11-19T20:16:42.177Z,79.75
2022-11-19T20:19:15.192Z,79.77
2022-11-19T20:21:43.772Z,79.77
2022-11-19T20:24:13.748Z,79.90
2022-11-19T20:26:43.193Z,80.02
2022-11-19T20:29:14.273Z,80.12
2022-11-19T20:31:47.235Z,80.10
2022-11-19T20:34:17.049Z,80.27
2022-11-19T20:36:46.777Z,80.36
2022-11-19T20:39:15.460Z,80.46
2022-11-19T20:42:02.233Z,80.71
2022-11-19T20:44:30.645Z,80.70
2022-11-19T20:47:04.101Z,80.73
2022-11-19T20:49:35.309Z,80.87
2022-11-19T20:52:03.996Z,80.95
2022-11-19T20:54:34.533Z,81.15
2022-11-19T20:57:02.988Z,81.23
2022-11-19T20:59:31.221Z,81.43
2022-11-19T21:01:59.653Z,81.43
2022-11-19T21:04:36.661Z,81.44
2022-11-19T21:07:05.538Z,81.66
2022-11-19T21:09:33.976Z,81.79
2022-11-19T21:12:02.550Z,81.87
2022-11-19T21:14:30.825Z,81.88
2022-11-19T21:16:59.116Z,81.96
2022-11-19T21:19:27.323Z,82.04
2022-11-19T21:21:55.576Z,82.05
2022-11-19T21:24:23.801Z,82.11
2022-11-19T21:26:52.310Z,82.10
2022-11-19T21:29:20.797Z,82.09
2022-11-19T21:31:49.520Z,82.09
2022-11-19T21:34:20.827Z,82.22
2022-11-19T21:36:49.942Z,82.21
2022-11-19T21:39:19.943Z,82.16
2022-11-19T21:41:48.956Z,82.05
2022-11-19T21:44:21.483Z,82.09
2022-11-19T21:46:50.431Z,81.87
2022-11-19T21:49:19.059Z,81.71
2022-11-19T21:51:47.696Z,81.82
2022-11-19T21:54:16.173Z,81.70
2022-11-19T21:56:44.587Z,81.49
2022-11-19T21:59:13.403Z,81.36
2022-11-19T22:01:41.763Z,81.28
2022-11-19T22:04:14.362Z,81.23
2022-11-19T22:06:42.553Z,81.21
2022-11-19T22:09:10.773Z,81.06
2022-11-19T22:11:39.186Z,80.72
2022-11-19T22:14:09.405Z,80.72
2022-11-19T22:16:39.382Z,80.86
2022-11-19T22:19:08.054Z,80.98
2022-11-19T22:21:36.476Z,81.06
2022-11-19T22:24:05.377Z,80.87
2022-11-19T22:26:33.438Z,80.76
2022-11-19T22:29:01.555Z,80.81
2022-11-19T22:31:29.739Z,80.86
2022-11-19T22:33:57.696Z,80.74
2022-11-19T22:36:25.798Z,80.72
2022-11-19T22:38:53.958Z,80.70
2022-11-19T22:41:22.980Z,80.72
2022-11-19T22:43:51.417Z,80.69
2022-11-19T22:46:20.305Z,80.46
2022-11-19T22:48:48.736Z,80.52
2022-11-19T22:51:20.801Z,80.43
2022-11-19T22:53:51.068Z,80.78
2022-11-19T22:56:25.357Z,80.83
2022-11-19T22:58:54.046Z,80.83
2022-11-19T23:01:28.949Z,80.69
2022-11-19T23:03:59.528Z,80.76
2022-11-19T23:06:27.989Z,80.57
2022-11-19T23:08:56.922Z,80.53
2022-11-19T23:11:44.060Z,80.51
2022-11-19T23:14:15.937Z,80.79
2022-11-19T23:16:44.873Z,80.88
2022-11-19T23:19:14.254Z,80.84
2022-11-19T23:21:42.655Z,80.76
2022-11-19T23:24:11.785Z,80.82
2022-11-19T23:26:40.254Z,81.03
2022-11-19T23:29:09.390Z,81.02
2022-11-19T23:31:40.661Z,80.91
2022-11-19T23:34:08.936Z,80.95
2022-11-19T23:36:39.911Z,80.95
2022-11-19T23:39:15.249Z,80.79
2022-11-19T23:41:44.166Z,80.92
2022-11-19T23:44:12.608Z,80.94
2022-11-19T23:46:41.133Z,81.02
2022-11-19T23:49:11.051Z,81.21
2022-11-19T23:51:40.270Z,81.20
2022-11-19T23:54:08.562Z,81.24
2022-11-19T23:56:37.182Z,81.29
2022-11-19T23:59:06.206Z,81.32
